CHIUDI BANNER

Seguici su twitter Seguici su facebook
LIVE Streaming HD
Get Adobe Flash player
Animazione Masse d'Aria e Nubi
satellite e T nubi
DNA SURF SHOP
Consigli pubblicitari di Google
Dati meteo stazione (refresh automatico ogni minuto)
Senigallia VENTO: VELOCITÀ   PIOGGIA: QTA GIORNO TEMPERATURA: ATTUALE
SPOT: Darsena Di Senigallia RAFFICA MASSIMA: QTA MENSILE: MASSIMA:
VELOCITÀ MEDIA: QTA ANNUALE: MINIMA:
DIREZIONE: UMIDITÀ: WIND CHILL:
TIPO: DEW POINT:
BEAUFORT: PRESSIONE:
I nostri partner
Senigallia nelle ultime ore
Applica filtri in visualizzazione Intervallo delle letture nelle ultime

Ora Direzione Vento Velocita' Vento Media Vento Raffica Max. Temperatura Wind Chill Pioggia Pressione
21:46:54287 °(WNW)4.3 Kts5.2 Kts13.9 Kts21.7 °C20.7 °C3.2 mm1012.5 Hpa
21:42:07291 °(WNW)4.3 Kts4.3 Kts13.9 Kts21.7 °C21.2 °C3.2 mm1012.4 Hpa
21:37:07281 °(W)3.5 Kts3.5 Kts13.9 Kts21.9 °C21.9 °C3.2 mm1012.4 Hpa
21:31:59290 °(WNW)2.6 Kts3.5 Kts13.9 Kts21.9 °C21.9 °C3.2 mm1012.4 Hpa
21:26:56298 °(WNW)4.3 Kts2.6 Kts13.9 Kts22 °C22 °C3.2 mm1012.3 Hpa
21:22:04304 °(NW)2.6 Kts2.6 Kts13.9 Kts22 °C22 °C3.2 mm1012.2 Hpa
21:16:50306 °(NW)2.6 Kts2.6 Kts13.9 Kts22.1 °C22.1 °C3.2 mm1012.2 Hpa
21:11:58308 °(NW)1.7 Kts1.7 Kts13.9 Kts22.2 °C22.2 °C3.2 mm1012.2 Hpa
21:07:04325 °(NW)2.6 Kts1.7 Kts13.9 Kts22.2 °C22.2 °C3.2 mm1012 Hpa
20:51:38327 °(NNW)1.7 Kts0.9 Kts13.9 Kts22.7 °C22.7 °C3.2 mm1011.9 Hpa
20:51:38327 °(NNW)1.7 Kts0.9 Kts13.9 Kts22.7 °C22.7 °C3.2 mm1011.9 Hpa
20:51:38327 °(NNW)1.7 Kts0.9 Kts13.9 Kts22.7 °C22.7 °C3.2 mm1011.9 Hpa
20:47:04327 °(NNW)0.9 Kts0.9 Kts13.9 Kts22.8 °C22.8 °C3.2 mm1011.9 Hpa
20:42:10327 °(NNW)1.7 Kts0.9 Kts13.9 Kts22.7 °C22.7 °C3.2 mm1011.7 Hpa
20:36:55327 °(NNW)0 Kts0 Kts13.9 Kts22.9 °C22.9 °C3.2 mm1011.8 Hpa
20:31:38327 °(NNW)0 Kts0 Kts13.9 Kts22.9 °C22.9 °C3.2 mm1011.8 Hpa
20:27:03327 °(NNW)0 Kts0 Kts13.9 Kts22.9 °C22.9 °C3.2 mm1011.7 Hpa
20:22:09327 °(NNW)0 Kts0.9 Kts13.9 Kts22.9 °C22.9 °C3.2 mm1011.6 Hpa
20:16:54327 °(NNW)0.9 Kts0.9 Kts13.9 Kts23 °C23 °C3.2 mm1011.6 Hpa
20:11:55327 °(NNW)1.7 Kts0.9 Kts13.9 Kts23.1 °C23.1 °C3.2 mm1011.6 Hpa
20:06:57327 °(NNW)1.7 Kts1.7 Kts13.9 Kts23.2 °C23.2 °C3.2 mm1011.6 Hpa
20:01:53327 °(NNW)0.9 Kts2.6 Kts13.9 Kts23.2 °C23.2 °C3.2 mm1011.5 Hpa
19:56:54327 °(NNW)2.6 Kts2.6 Kts13.9 Kts23.2 °C23.2 °C3.2 mm1011.5 Hpa
19:51:53300 °(WNW)1.7 Kts3.5 Kts13.9 Kts23.3 °C23.3 °C3.2 mm1011.5 Hpa